createdAt,value
2022-09-10T00:01:57.252Z,17.90
2022-09-10T00:04:39.039Z,18.00
2022-09-10T00:07:27.459Z,17.90
2022-09-10T00:10:09.091Z,17.90
2022-09-10T00:12:57.318Z,17.80
2022-09-10T00:15:40.118Z,17.80
2022-09-10T00:18:30.344Z,17.80
2022-09-10T00:21:15.092Z,17.80
2022-09-10T00:24:05.150Z,17.90
2022-09-10T00:26:47.080Z,17.90
2022-09-10T00:29:35.346Z,17.90
2022-09-10T00:32:25.111Z,17.90
2022-09-10T00:35:14.271Z,17.80
2022-09-10T00:38:03.273Z,17.80
2022-09-10T00:40:53.456Z,17.90
2022-09-10T00:43:43.753Z,18.00
2022-09-10T00:46:42.952Z,18.00
2022-09-10T00:49:37.266Z,18.00
2022-09-10T00:52:27.989Z,18.00
2022-09-10T00:55:10.096Z,18.10
2022-09-10T00:58:11.197Z,17.80
2022-09-10T01:01:11.162Z,17.90
2022-09-10T01:04:02.846Z,18.10
2022-09-10T01:06:47.109Z,18.10
2022-09-10T01:09:32.426Z,18.10
2022-09-10T01:12:40.186Z,18.00
2022-09-10T01:15:36.745Z,18.00
2022-09-10T01:18:38.195Z,17.90
2022-09-10T01:21:32.176Z,18.00
2022-09-10T01:24:45.384Z,18.00
2022-09-10T01:27:50.313Z,18.00
2022-09-10T01:30:37.101Z,18.10
2022-09-10T01:33:30.522Z,18.00
2022-09-10T01:36:27.135Z,18.00
2022-09-10T01:39:12.364Z,18.10
2022-09-10T01:42:09.066Z,17.90
2022-09-10T01:45:01.108Z,17.90
2022-09-10T01:48:09.180Z,18.00
2022-09-10T01:51:08.839Z,17.90
2022-09-10T01:54:31.086Z,17.90
2022-09-10T01:57:33.518Z,17.90
2022-09-10T02:00:26.158Z,18.00
2022-09-10T02:03:16.184Z,17.80
2022-09-10T02:06:08.065Z,17.90
2022-09-10T02:08:53.457Z,18.00
2022-09-10T02:11:59.188Z,18.00
2022-09-10T02:14:58.258Z,17.90
2022-09-10T02:18:04.100Z,17.90
2022-09-10T02:20:53.404Z,17.80
2022-09-10T02:23:46.114Z,17.90
2022-09-10T02:26:35.339Z,18.10
2022-09-10T02:29:26.174Z,18.10
2022-09-10T02:32:15.344Z,18.00
2022-09-10T02:34:58.134Z,18.00
2022-09-10T02:37:46.335Z,17.80
2022-09-10T02:40:28.236Z,17.80
2022-09-10T02:43:17.324Z,17.80
2022-09-10T02:46:02.226Z,17.80
2022-09-10T02:48:51.380Z,17.80
2022-09-10T02:51:35.178Z,17.90
2022-09-10T02:54:23.449Z,17.90
2022-09-10T02:57:12.094Z,17.90
2022-09-10T03:00:08.096Z,17.90
2022-09-10T03:03:04.105Z,17.80
2022-09-10T03:05:52.571Z,17.80
2022-09-10T03:08:42.106Z,17.80
2022-09-10T03:11:30.352Z,17.80
2022-09-10T03:14:19.138Z,17.90
2022-09-10T03:17:08.688Z,17.90
2022-09-10T03:19:50.133Z,17.90
2022-09-10T03:22:38.403Z,18.00
2022-09-10T03:25:25.228Z,18.00
2022-09-10T03:28:13.718Z,18.00
2022-09-10T03:30:57.388Z,18.00
2022-09-10T03:33:51.159Z,18.00
2022-09-10T03:36:36.176Z,18.00
2022-09-10T03:39:25.339Z,18.10
2022-09-10T03:42:15.218Z,18.00
2022-09-10T03:45:03.334Z,18.00
2022-09-10T03:47:51.194Z,17.90
2022-09-10T03:50:39.330Z,17.80
2022-09-10T03:53:28.240Z,17.90
2022-09-10T03:56:18.129Z,18.00
2022-09-10T03:59:15.124Z,18.10
2022-09-10T04:02:11.248Z,18.20
2022-09-10T04:05:01.268Z,18.10
2022-09-10T04:07:52.349Z,18.10
2022-09-10T04:10:41.215Z,18.10
2022-09-10T04:13:24.375Z,18.10
2022-09-10T04:16:14.372Z,18.00
2022-09-10T04:18:56.388Z,17.80
2022-09-10T04:21:44.214Z,17.90
2022-09-10T04:24:26.339Z,17.80
2022-09-10T04:27:21.133Z,17.80
2022-09-10T04:30:09.453Z,17.90
2022-09-10T04:32:59.184Z,18.00
2022-09-10T04:35:47.353Z,18.00
2022-09-10T04:38:37.175Z,18.00
2022-09-10T04:41:22.347Z,18.00
2022-09-10T04:44:11.314Z,17.80
2022-09-10T04:46:59.464Z,17.80
2022-09-10T04:49:43.214Z,18.00
2022-09-10T04:52:32.450Z,17.90
2022-09-10T04:55:16.165Z,17.90
2022-09-10T04:58:04.498Z,17.90
2022-09-10T05:01:04.306Z,17.80
2022-09-10T05:03:59.366Z,17.90
2022-09-10T05:07:00.251Z,18.00
2022-09-10T05:09:48.805Z,18.00
2022-09-10T05:12:37.211Z,17.90
2022-09-10T05:15:26.596Z,17.90
2022-09-10T05:18:15.263Z,18.00
2022-09-10T05:21:05.418Z,18.00
2022-09-10T05:23:57.269Z,18.10
2022-09-10T05:26:48.479Z,18.20
2022-09-10T05:29:37.253Z,18.20
2022-09-10T05:32:25.636Z,18.20
2022-09-10T05:35:07.350Z,18.10
2022-09-10T05:37:58.594Z,18.00
2022-09-10T05:40:46.291Z,18.00
2022-09-10T05:43:36.577Z,18.00
2022-09-10T05:46:19.261Z,18.00
2022-09-10T05:49:13.239Z,18.00
2022-09-10T05:52:02.160Z,18.00
2022-09-10T05:54:44.781Z,18.00
2022-09-10T05:57:34.370Z,17.80
2022-09-10T06:00:33.290Z,17.80
2022-09-10T06:03:28.279Z,17.80
2022-09-10T06:06:17.577Z,17.90
2022-09-10T06:09:12.288Z,17.80
2022-09-10T06:12:27.477Z,17.80
2022-09-10T06:15:11.288Z,17.80
2022-09-10T06:17:59.661Z,17.80
2022-09-10T06:20:41.285Z,17.70
2022-09-10T06:23:31.583Z,17.80
2022-09-10T06:26:15.285Z,18.00
2022-09-10T06:29:09.574Z,17.90
2022-09-10T06:31:51.179Z,17.90
2022-09-10T06:34:39.547Z,18.00
2022-09-10T06:37:27.234Z,17.90
2022-09-10T06:40:19.803Z,17.90
2022-09-10T06:43:08.201Z,18.10
2022-09-10T06:46:34.749Z,18.10
2022-09-10T06:49:25.259Z,18.30
2022-09-10T06:52:13.578Z,18.00
2022-09-10T06:54:58.167Z,18.00
2022-09-10T06:57:59.039Z,18.10
2022-09-10T07:00:55.369Z,18.10
2022-09-10T07:03:46.464Z,18.30
2022-09-10T07:06:29.200Z,18.10
2022-09-10T07:09:22.502Z,18.20
2022-09-10T07:12:13.263Z,18.40
2022-09-10T07:15:02.435Z,18.50
2022-09-10T07:17:51.192Z,18.60
2022-09-10T07:20:42.190Z,18.40
2022-09-10T07:23:31.312Z,18.30
2022-09-10T07:26:14.274Z,18.40
2022-09-10T07:29:05.537Z,18.40
2022-09-10T07:31:48.206Z,18.30
2022-09-10T07:34:38.924Z,18.20
2022-09-10T07:37:29.304Z,18.40
2022-09-10T07:40:18.496Z,18.50
2022-09-10T07:43:07.317Z,18.50
2022-09-10T07:45:55.431Z,18.70
2022-09-10T07:48:44.332Z,18.70
2022-09-10T07:51:34.404Z,18.80
2022-09-10T07:54:26.284Z,18.70
2022-09-10T07:57:15.599Z,18.60
2022-09-10T08:00:10.249Z,18.70
2022-09-10T08:03:04.202Z,18.70
2022-09-10T08:05:47.329Z,18.80
2022-09-10T08:08:38.280Z,19.00
2022-09-10T08:11:25.337Z,19.10
2022-09-10T08:14:14.319Z,19.10
2022-09-10T08:17:07.353Z,19.20
2022-09-10T08:19:52.361Z,19.10
2022-09-10T08:22:41.244Z,18.90
2022-09-10T08:25:29.423Z,18.80
2022-09-10T08:28:26.258Z,19.00
2022-09-10T08:31:18.069Z,19.00
2022-09-10T08:34:26.236Z,19.10
2022-09-10T08:37:19.527Z,19.20
2022-09-10T08:40:12.562Z,19.30
2022-09-10T08:43:02.564Z,19.30
2022-09-10T08:45:46.279Z,19.40
2022-09-10T08:48:37.619Z,19.50
2022-09-10T08:51:26.287Z,19.60
2022-09-10T08:54:21.635Z,19.70
2022-09-10T08:57:12.270Z,19.50
2022-09-10T09:00:10.283Z,19.50
2022-09-10T09:03:14.386Z,19.70
2022-09-10T09:06:08.220Z,19.70
2022-09-10T09:09:03.281Z,19.60
2022-09-10T09:11:50.431Z,19.70
2022-09-10T09:14:46.254Z,19.80
2022-09-10T09:17:54.977Z,19.90
2022-09-10T09:20:44.348Z,19.90
2022-09-10T09:23:47.985Z,19.90
2022-09-10T09:26:42.443Z,20.00
2022-09-10T09:29:32.467Z,20.10
2022-09-10T09:32:20.307Z,20.30
2022-09-10T09:35:12.670Z,20.50
2022-09-10T09:38:04.313Z,20.60
2022-09-10T09:40:56.320Z,20.60
2022-09-10T09:43:49.328Z,20.30
2022-09-10T09:46:32.199Z,20.30
2022-09-10T09:49:25.268Z,20.50
2022-09-10T09:52:22.514Z,20.60
2022-09-10T09:55:15.766Z,20.60
2022-09-10T09:58:28.459Z,20.80
2022-09-10T10:01:28.331Z,21.00
2022-09-10T10:04:27.003Z,21.00
2022-09-10T10:07:16.295Z,20.90
2022-09-10T10:10:05.495Z,21.00
2022-09-10T10:12:56.378Z,21.30
2022-09-10T10:15:46.263Z,21.60
2022-09-10T10:18:44.270Z,21.90
2022-09-10T10:21:37.835Z,21.80
2022-09-10T10:24:43.420Z,21.90
2022-09-10T10:27:35.590Z,21.80
2022-09-10T10:30:29.313Z,22.10
2022-09-10T10:33:18.297Z,22.20
2022-09-10T10:36:10.561Z,22.20
2022-09-10T10:39:02.294Z,22.20
2022-09-10T10:41:55.625Z,22.10
2022-09-10T10:44:49.355Z,22.00
2022-09-10T10:47:52.752Z,22.10
2022-09-10T10:50:37.292Z,22.10
2022-09-10T10:53:30.501Z,22.20
2022-09-10T10:56:15.303Z,22.20
2022-09-10T10:59:30.277Z,22.20
2022-09-10T11:02:22.554Z,22.10
2022-09-10T11:05:08.349Z,22.50
2022-09-10T11:07:56.488Z,22.60
2022-09-10T11:10:41.288Z,22.60
2022-09-10T11:13:32.217Z,22.60
2022-09-10T11:16:16.325Z,22.80
2022-09-10T11:19:08.601Z,23.00
2022-09-10T11:21:59.343Z,23.10
2022-09-10T11:24:48.451Z,23.10
2022-09-10T11:27:38.296Z,22.80
2022-09-10T11:30:26.307Z,22.70
2022-09-10T11:33:12.555Z,22.60
2022-09-10T11:36:06.416Z,22.60
2022-09-10T11:38:53.150Z,22.60
2022-09-10T11:41:41.358Z,22.70
2022-09-10T11:44:41.313Z,22.60
2022-09-10T11:47:33.523Z,22.70
2022-09-10T11:50:17.300Z,22.90
2022-09-10T11:53:07.959Z,22.90
2022-09-10T11:55:55.331Z,23.00
2022-09-10T11:59:02.315Z,23.00
2022-09-10T12:02:13.474Z,22.80
2022-09-10T12:05:05.480Z,22.70
2022-09-10T12:07:57.427Z,22.60
2022-09-10T12:10:54.402Z,22.30
2022-09-10T12:13:52.472Z,22.00
2022-09-10T12:16:41.525Z,21.70
2022-09-10T12:19:35.406Z,21.30
2022-09-10T12:22:28.626Z,21.20
2022-09-10T12:25:11.330Z,21.20
2022-09-10T12:28:01.547Z,21.30
2022-09-10T12:31:07.335Z,21.30
2022-09-10T12:34:12.402Z,21.20
2022-09-10T12:37:28.425Z,21.30
2022-09-10T12:40:34.637Z,21.40
2022-09-10T12:43:53.464Z,21.30
2022-09-10T12:46:44.798Z,21.40
2022-09-10T12:49:33.368Z,21.40
2022-09-10T12:52:25.144Z,21.20
2022-09-10T12:55:11.377Z,21.40
2022-09-10T12:58:03.647Z,21.40
2022-09-10T13:01:01.379Z,21.50
2022-09-10T13:03:56.755Z,21.50
2022-09-10T13:06:42.354Z,21.40
2022-09-10T13:09:31.581Z,21.50
2022-09-10T13:12:29.416Z,21.50
2022-09-10T13:15:24.099Z,21.40
2022-09-10T13:18:35.391Z,21.40
2022-09-10T13:21:41.342Z,21.40
2022-09-10T13:24:37.618Z,21.40
2022-09-10T13:27:35.356Z,21.40
2022-09-10T13:30:24.531Z,21.10
2022-09-10T13:33:15.978Z,20.70
2022-09-10T13:36:13.364Z,20.50
2022-09-10T13:39:14.529Z,20.10
2022-09-10T13:42:17.459Z,19.90
2022-09-10T13:45:12.465Z,19.60
2022-09-10T13:48:02.405Z,19.60
2022-09-10T13:50:48.104Z,19.70
2022-09-10T13:53:36.399Z,19.60
2022-09-10T13:56:27.585Z,19.70
2022-09-10T13:59:23.389Z,19.80
2022-09-10T14:02:19.373Z,19.80
2022-09-10T14:05:07.586Z,19.80
2022-09-10T14:07:56.430Z,19.80
2022-09-10T14:10:55.923Z,19.90
2022-09-10T14:13:46.368Z,20.20
2022-09-10T14:16:38.453Z,20.00
2022-09-10T14:19:24.631Z,20.10
2022-09-10T14:22:19.386Z,20.00
2022-09-10T14:25:09.227Z,20.00
2022-09-10T14:27:58.392Z,19.80
2022-09-10T14:30:46.714Z,20.20
2022-09-10T14:33:35.403Z,20.20
2022-09-10T14:36:26.349Z,20.20
2022-09-10T14:39:29.374Z,20.10
2022-09-10T14:42:18.711Z,20.20
2022-09-10T14:45:00.414Z,20.20
2022-09-10T14:48:04.447Z,20.20
2022-09-10T14:50:48.430Z,20.30
2022-09-10T14:53:38.570Z,20.20
2022-09-10T14:56:32.853Z,20.40
2022-09-10T14:59:26.382Z,20.30
2022-09-10T15:02:27.405Z,20.20
2022-09-10T15:05:20.531Z,20.10
2022-09-10T15:08:09.373Z,20.50
2022-09-10T15:11:00.174Z,20.50
2022-09-10T15:13:50.500Z,20.50
2022-09-10T15:16:38.639Z,20.70
2022-09-10T15:19:26.444Z,20.80
2022-09-10T15:22:14.704Z,20.80
2022-09-10T15:25:09.727Z,20.70
2022-09-10T15:27:59.644Z,20.80
2022-09-10T15:30:42.458Z,20.90
2022-09-10T15:33:37.392Z,20.90
2022-09-10T15:36:25.979Z,20.80
2022-09-10T15:39:13.444Z,20.90
2022-09-10T15:42:02.066Z,21.00
2022-09-10T15:44:47.377Z,21.10
2022-09-10T15:47:36.353Z,21.00
2022-09-10T15:50:18.519Z,20.90
2022-09-10T15:53:11.673Z,20.80
2022-09-10T15:55:52.478Z,20.90
2022-09-10T15:58:48.426Z,21.00
2022-09-10T16:01:44.483Z,20.80
2022-09-10T16:04:36.670Z,20.90
2022-09-10T16:07:25.671Z,20.70
2022-09-10T16:10:07.483Z,20.70
2022-09-10T16:12:55.717Z,20.90
2022-09-10T16:15:37.562Z,21.00
2022-09-10T16:18:26.616Z,21.00
2022-09-10T16:21:15.437Z,21.00
2022-09-10T16:24:10.487Z,21.10
2022-09-10T16:26:58.699Z,21.20
2022-09-10T16:29:40.458Z,21.20
2022-09-10T16:32:29.473Z,21.10
2022-09-10T16:35:12.451Z,21.00
2022-09-10T16:38:01.112Z,21.00
2022-09-10T16:40:42.466Z,21.00
2022-09-10T16:43:31.062Z,21.10
2022-09-10T16:46:13.454Z,21.10
2022-09-10T16:49:02.698Z,20.90
2022-09-10T16:51:52.478Z,21.00
2022-09-10T16:54:40.427Z,20.90
2022-09-10T16:57:21.611Z,21.10
2022-09-10T17:00:17.514Z,21.00
2022-09-10T17:03:06.141Z,21.10
2022-09-10T17:05:47.414Z,21.00
2022-09-10T17:08:36.786Z,20.90
2022-09-10T17:11:18.505Z,20.90
2022-09-10T17:14:08.261Z,20.80
2022-09-10T17:16:56.436Z,20.70
2022-09-10T17:19:44.506Z,20.80
2022-09-10T17:22:33.635Z,21.00
2022-09-10T17:25:16.428Z,21.00
2022-09-10T17:28:04.616Z,20.90
2022-09-10T17:30:45.508Z,20.80
2022-09-10T17:33:33.670Z,20.80
2022-09-10T17:36:15.550Z,20.60
2022-09-10T17:39:03.697Z,20.50
2022-09-10T17:41:46.449Z,20.60
2022-09-10T17:44:34.689Z,20.50
2022-09-10T17:47:23.500Z,20.40
2022-09-10T17:50:11.445Z,20.10
2022-09-10T17:52:53.572Z,20.00
2022-09-10T17:55:41.461Z,19.90
2022-09-10T17:58:24.690Z,19.80
2022-09-10T18:01:23.483Z,19.60
2022-09-10T18:04:12.641Z,19.70
2022-09-10T18:07:00.452Z,19.80
2022-09-10T18:09:48.793Z,19.80
2022-09-10T18:12:37.450Z,19.80
2022-09-10T18:15:27.549Z,19.80
2022-09-10T18:18:08.872Z,19.60
2022-09-10T18:20:56.497Z,19.70
2022-09-10T18:23:37.705Z,20.00
2022-09-10T18:26:27.468Z,19.90
2022-09-10T18:29:10.770Z,19.80
2022-09-10T18:32:08.583Z,19.50
2022-09-10T18:34:49.940Z,19.60
2022-09-10T18:37:37.454Z,19.80
2022-09-10T18:40:25.461Z,19.90
2022-09-10T18:43:06.788Z,19.90
2022-09-10T18:45:54.511Z,19.80
2022-09-10T18:48:44.121Z,19.80
2022-09-10T18:51:26.491Z,19.80
2022-09-10T18:54:21.503Z,19.80
2022-09-10T18:57:09.780Z,19.70
2022-09-10T18:59:50.506Z,19.60
2022-09-10T19:02:45.687Z,19.50
2022-09-10T19:05:34.565Z,19.30
2022-09-10T19:08:18.061Z,19.60
2022-09-10T19:11:05.504Z,19.50
2022-09-10T19:13:46.679Z,19.80
2022-09-10T19:16:35.519Z,19.80
2022-09-10T19:19:19.698Z,19.80
2022-09-10T19:22:17.500Z,19.70
2022-09-10T19:25:05.804Z,19.60
2022-09-10T19:27:53.658Z,19.60
2022-09-10T19:30:51.614Z,19.60
2022-09-10T19:33:39.722Z,19.40
2022-09-10T19:36:22.493Z,19.50
2022-09-10T19:39:12.741Z,19.40
2022-09-10T19:42:01.493Z,19.50
2022-09-10T19:44:43.579Z,19.40
2022-09-10T19:47:31.487Z,19.50
2022-09-10T19:50:23.238Z,19.50
2022-09-10T19:53:11.503Z,19.60
2022-09-10T19:56:01.673Z,19.60
2022-09-10T19:58:50.501Z,19.50
2022-09-10T20:01:46.672Z,19.50
2022-09-10T20:04:34.611Z,19.50
2022-09-10T20:07:16.183Z,19.50
2022-09-10T20:10:03.518Z,19.70
2022-09-10T20:12:46.753Z,19.80
2022-09-10T20:15:34.530Z,19.60
2022-09-10T20:18:15.735Z,19.70
2022-09-10T20:21:03.513Z,19.70
2022-09-10T20:23:44.670Z,19.70
2022-09-10T20:26:34.559Z,19.70
2022-09-10T20:29:19.131Z,19.60
2022-09-10T20:32:13.583Z,19.50
2022-09-10T20:35:01.888Z,19.40
2022-09-10T20:37:51.756Z,19.40
2022-09-10T20:40:39.748Z,19.40
2022-09-10T20:43:27.508Z,19.50
2022-09-10T20:46:20.862Z,19.60
2022-09-10T20:49:09.529Z,19.70
2022-09-10T20:52:05.552Z,19.70
2022-09-10T20:54:55.326Z,19.70
2022-09-10T20:57:42.507Z,19.80
2022-09-10T21:00:37.518Z,19.90
2022-09-10T21:03:33.566Z,20.00
2022-09-10T21:06:22.980Z,19.80
2022-09-10T21:09:10.541Z,19.60
2022-09-10T21:12:05.519Z,19.50
2022-09-10T21:14:47.255Z,19.40
2022-09-10T21:17:35.542Z,19.30
2022-09-10T21:20:25.051Z,19.30
2022-09-10T21:23:13.820Z,19.30
2022-09-10T21:26:01.745Z,19.30
2022-09-10T21:28:51.519Z,19.40
2022-09-10T21:31:39.791Z,19.40
2022-09-10T21:34:21.558Z,19.40
2022-09-10T21:37:17.809Z,19.20
2022-09-10T21:40:07.008Z,19.10
2022-09-10T21:42:54.543Z,19.10
2022-09-10T21:45:43.867Z,19.00
2022-09-10T21:48:31.648Z,19.10
2022-09-10T21:51:20.832Z,19.00
2022-09-10T21:54:11.541Z,19.20
2022-09-10T21:57:00.017Z,19.20
2022-09-10T21:59:40.623Z,19.20
2022-09-10T22:02:36.580Z,19.30
2022-09-10T22:05:24.717Z,19.20
2022-09-10T22:08:13.609Z,19.20
2022-09-10T22:11:02.890Z,19.10
2022-09-10T22:13:50.560Z,19.10
2022-09-10T22:16:39.634Z,19.10
2022-09-10T22:19:22.746Z,19.20
2022-09-10T22:22:17.657Z,19.00
2022-09-10T22:25:05.818Z,19.00
2022-09-10T22:27:56.550Z,19.10
2022-09-10T22:30:44.782Z,19.10
2022-09-10T22:33:32.571Z,19.10
2022-09-10T22:36:23.493Z,19.10
2022-09-10T22:39:12.601Z,19.00
2022-09-10T22:42:00.816Z,18.90
2022-09-10T22:44:43.564Z,18.90
2022-09-10T22:47:31.804Z,19.00
2022-09-10T22:50:19.566Z,18.90
2022-09-10T22:53:08.642Z,18.80
2022-09-10T22:55:58.116Z,18.80
2022-09-10T22:58:46.567Z,18.60
2022-09-10T23:01:43.844Z,18.40
2022-09-10T23:04:32.598Z,18.30
2022-09-10T23:07:21.774Z,18.30
2022-09-10T23:10:03.656Z,18.40
2022-09-10T23:12:58.592Z,18.20
2022-09-10T23:15:47.014Z,18.10
2022-09-10T23:18:36.663Z,18.10
2022-09-10T23:21:24.939Z,18.10
2022-09-10T23:24:13.606Z,18.10
2022-09-10T23:27:03.780Z,18.10
2022-09-10T23:29:44.574Z,18.20
2022-09-10T23:32:40.715Z,18.40
2022-09-10T23:35:29.819Z,18.50
2022-09-10T23:38:17.634Z,18.50
2022-09-10T23:41:06.847Z,18.60
2022-09-10T23:43:54.569Z,18.50
2022-09-10T23:46:43.362Z,18.60
2022-09-10T23:49:24.645Z,18.70
2022-09-10T23:52:13.879Z,18.80
2022-09-10T23:54:55.605Z,19.00
2022-09-10T23:57:50.664Z,18.90
